sensor_id;sensor_type;location;lat;lon;timestamp;P1;durP1;ratioP1;P2;durP2;ratioP2
52974;SDS011;38839;45.186;5.720;2022-11-11T00:00:36;5.57;;;3.30;;
52974;SDS011;38839;45.186;5.720;2022-11-11T00:03:02;4.68;;;3.45;;
52974;SDS011;38839;45.186;5.720;2022-11-11T00:05:28;6.32;;;3.95;;
52974;SDS011;38839;45.186;5.720;2022-11-11T00:07:55;4.50;;;3.50;;
52974;SDS011;38839;45.186;5.720;2022-11-11T00:10:26;5.82;;;3.53;;
52974;SDS011;38839;45.186;5.720;2022-11-11T00:13:02;4.97;;;3.50;;
52974;SDS011;38839;45.186;5.720;2022-11-11T00:15:29;5.75;;;3.25;;
52974;SDS011;38839;45.186;5.720;2022-11-11T00:17:55;7.78;;;3.35;;
52974;SDS011;38839;45.186;5.720;2022-11-11T00:20:40;4.40;;;3.25;;
52974;SDS011;38839;45.186;5.720;2022-11-11T00:23:24;4.43;;;3.08;;
52974;SDS011;38839;45.186;5.720;2022-11-11T00:26:10;8.20;;;3.90;;
52974;SDS011;38839;45.186;5.720;2022-11-11T00:28:38;7.05;;;3.38;;
52974;SDS011;38839;45.186;5.720;2022-11-11T00:31:04;5.63;;;3.40;;
52974;SDS011;38839;45.186;5.720;2022-11-11T00:33:31;4.47;;;3.45;;
52974;SDS011;38839;45.186;5.720;2022-11-11T00:35:56;4.93;;;3.25;;
52974;SDS011;38839;45.186;5.720;2022-11-11T00:38:22;8.38;;;3.47;;
52974;SDS011;38839;45.186;5.720;2022-11-11T00:41:06;4.68;;;3.25;;
52974;SDS011;38839;45.186;5.720;2022-11-11T00:43:31;7.88;;;3.83;;
52974;SDS011;38839;45.186;5.720;2022-11-11T00:45:58;5.20;;;3.38;;
52974;SDS011;38839;45.186;5.720;2022-11-11T00:48:41;10.27;;;4.68;;
52974;SDS011;38839;45.186;5.720;2022-11-11T00:51:25;6.65;;;3.92;;
52974;SDS011;38839;45.186;5.720;2022-11-11T00:53:51;4.75;;;3.67;;
52974;SDS011;38839;45.186;5.720;2022-11-11T00:56:16;6.13;;;3.92;;
52974;SDS011;38839;45.186;5.720;2022-11-11T00:58:42;5.85;;;3.72;;
52974;SDS011;38839;45.186;5.720;2022-11-11T01:01:07;5.28;;;3.60;;
52974;SDS011;38839;45.186;5.720;2022-11-11T01:03:32;6.28;;;3.92;;
52974;SDS011;38839;45.186;5.720;2022-11-11T01:06:01;6.40;;;3.92;;
52974;SDS011;38839;45.186;5.720;2022-11-11T01:08:27;7.13;;;4.20;;
52974;SDS011;38839;45.186;5.720;2022-11-11T01:10:54;5.53;;;3.85;;
52974;SDS011;38839;45.186;5.720;2022-11-11T01:13:21;6.30;;;3.92;;
52974;SDS011;38839;45.186;5.720;2022-11-11T01:15:52;7.85;;;4.55;;
52974;SDS011;38839;45.186;5.720;2022-11-11T01:18:25;6.55;;;4.05;;
52974;SDS011;38839;45.186;5.720;2022-11-11T01:23:28;7.28;;;4.32;;
52974;SDS011;38839;45.186;5.720;2022-11-11T01:25:54;5.55;;;4.15;;
52974;SDS011;38839;45.186;5.720;2022-11-11T01:28:19;5.70;;;4.20;;
52974;SDS011;38839;45.186;5.720;2022-11-11T01:30:44;5.55;;;4.28;;
52974;SDS011;38839;45.186;5.720;2022-11-11T01:33:10;9.15;;;4.70;;
52974;SDS011;38839;45.186;5.720;2022-11-11T01:35:39;6.55;;;4.47;;
52974;SDS011;38839;45.186;5.720;2022-11-11T01:38:05;8.10;;;4.55;;
52974;SDS011;38839;45.186;5.720;2022-11-11T01:40:39;8.98;;;4.32;;
52974;SDS011;38839;45.186;5.720;2022-11-11T01:48:18;5.13;;;3.50;;
52974;SDS011;38839;45.186;5.720;2022-11-11T01:51:11;6.13;;;4.07;;
52974;SDS011;38839;45.186;5.720;2022-11-11T01:53:42;9.05;;;4.10;;
52974;SDS011;38839;45.186;5.720;2022-11-11T01:56:09;5.15;;;3.70;;
52974;SDS011;38839;45.186;5.720;2022-11-11T01:58:34;6.07;;;3.75;;
52974;SDS011;38839;45.186;5.720;2022-11-11T02:01:01;6.63;;;3.40;;
52974;SDS011;38839;45.186;5.720;2022-11-11T02:03:27;6.43;;;3.53;;
52974;SDS011;38839;45.186;5.720;2022-11-11T02:05:57;4.60;;;3.38;;
52974;SDS011;38839;45.186;5.720;2022-11-11T02:08:25;4.13;;;2.90;;
52974;SDS011;38839;45.186;5.720;2022-11-11T02:11:17;6.45;;;3.60;;
52974;SDS011;38839;45.186;5.720;2022-11-11T02:14:04;4.13;;;2.92;;
52974;SDS011;38839;45.186;5.720;2022-11-11T02:16:48;3.38;;;2.60;;
52974;SDS011;38839;45.186;5.720;2022-11-11T02:19:13;4.30;;;2.55;;
52974;SDS011;38839;45.186;5.720;2022-11-11T02:21:54;3.60;;;2.97;;
52974;SDS011;38839;45.186;5.720;2022-11-11T02:24:23;4.53;;;2.70;;
52974;SDS011;38839;45.186;5.720;2022-11-11T02:26:50;6.30;;;3.53;;
52974;SDS011;38839;45.186;5.720;2022-11-11T02:29:18;6.38;;;3.60;;
52974;SDS011;38839;45.186;5.720;2022-11-11T02:31:45;4.82;;;3.15;;
52974;SDS011;38839;45.186;5.720;2022-11-11T02:34:10;4.55;;;3.00;;
52974;SDS011;38839;45.186;5.720;2022-11-11T02:36:36;7.28;;;4.15;;
52974;SDS011;38839;45.186;5.720;2022-11-11T02:39:03;5.05;;;3.75;;
52974;SDS011;38839;45.186;5.720;2022-11-11T02:41:29;5.43;;;3.53;;
52974;SDS011;38839;45.186;5.720;2022-11-11T02:44:12;4.20;;;3.17;;
52974;SDS011;38839;45.186;5.720;2022-11-11T02:46:38;6.78;;;3.60;;
52974;SDS011;38839;45.186;5.720;2022-11-11T02:49:03;4.65;;;3.35;;
52974;SDS011;38839;45.186;5.720;2022-11-11T02:51:29;6.13;;;3.92;;
52974;SDS011;38839;45.186;5.720;2022-11-11T02:53:54;4.28;;;3.50;;
52974;SDS011;38839;45.186;5.720;2022-11-11T02:56:23;4.50;;;3.60;;
52974;SDS011;38839;45.186;5.720;2022-11-11T02:59:07;5.68;;;3.80;;
52974;SDS011;38839;45.186;5.720;2022-11-11T03:01:33;6.28;;;3.83;;
52974;SDS011;38839;45.186;5.720;2022-11-11T03:03:58;5.60;;;4.05;;
52974;SDS011;38839;45.186;5.720;2022-11-11T03:06:24;6.80;;;4.18;;
52974;SDS011;38839;45.186;5.720;2022-11-11T03:08:49;6.30;;;3.90;;
52974;SDS011;38839;45.186;5.720;2022-11-11T03:11:14;5.07;;;3.45;;
52974;SDS011;38839;45.186;5.720;2022-11-11T03:13:51;5.60;;;3.60;;
52974;SDS011;38839;45.186;5.720;2022-11-11T03:16:23;4.95;;;3.70;;
52974;SDS011;38839;45.186;5.720;2022-11-11T03:19:08;7.32;;;3.70;;
52974;SDS011;38839;45.186;5.720;2022-11-11T03:21:33;5.60;;;4.10;;
52974;SDS011;38839;45.186;5.720;2022-11-11T03:23:59;5.30;;;3.95;;
52974;SDS011;38839;45.186;5.720;2022-11-11T03:26:24;10.90;;;4.28;;
52974;SDS011;38839;45.186;5.720;2022-11-11T03:28:50;6.80;;;3.47;;
52974;SDS011;38839;45.186;5.720;2022-11-11T03:31:15;5.47;;;3.60;;
52974;SDS011;38839;45.186;5.720;2022-11-11T03:33:41;5.43;;;3.47;;
52974;SDS011;38839;45.186;5.720;2022-11-11T03:36:06;9.18;;;3.92;;
52974;SDS011;38839;45.186;5.720;2022-11-11T03:38:32;8.23;;;3.90;;
52974;SDS011;38839;45.186;5.720;2022-11-11T03:40:57;4.72;;;3.60;;
52974;SDS011;38839;45.186;5.720;2022-11-11T03:43:24;4.78;;;3.67;;
52974;SDS011;38839;45.186;5.720;2022-11-11T03:45:52;4.72;;;3.70;;
52974;SDS011;38839;45.186;5.720;2022-11-11T03:48:18;8.18;;;3.40;;
52974;SDS011;38839;45.186;5.720;2022-11-11T03:50:47;4.50;;;3.15;;
52974;SDS011;38839;45.186;5.720;2022-11-11T03:53:13;5.70;;;3.10;;
52974;SDS011;38839;45.186;5.720;2022-11-11T03:55:39;5.32;;;3.00;;
52974;SDS011;38839;45.186;5.720;2022-11-11T03:58:05;7.40;;;3.53;;
52974;SDS011;38839;45.186;5.720;2022-11-11T04:00:30;5.35;;;3.22;;
52974;SDS011;38839;45.186;5.720;2022-11-11T04:03:03;4.95;;;3.45;;
52974;SDS011;38839;45.186;5.720;2022-11-11T04:05:48;5.00;;;3.60;;
52974;SDS011;38839;45.186;5.720;2022-11-11T04:08:33;4.05;;;3.45;;
52974;SDS011;38839;45.186;5.720;2022-11-11T04:11:59;4.28;;;3.30;;
52974;SDS011;38839;45.186;5.720;2022-11-11T04:14:08;5.57;;;3.20;;
52974;SDS011;38839;45.186;5.720;2022-11-11T04:16:54;4.70;;;2.95;;
52974;SDS011;38839;45.186;5.720;2022-11-11T04:19:19;4.60;;;3.28;;
52974;SDS011;38839;45.186;5.720;2022-11-11T04:22:03;4.20;;;3.30;;
52974;SDS011;38839;45.186;5.720;2022-11-11T04:24:29;7.22;;;4.03;;
52974;SDS011;38839;45.186;5.720;2022-11-11T04:27:14;4.72;;;3.50;;
52974;SDS011;38839;45.186;5.720;2022-11-11T04:29:41;4.88;;;3.13;;
52974;SDS011;38839;45.186;5.720;2022-11-11T04:32:08;4.15;;;3.28;;
52974;SDS011;38839;45.186;5.720;2022-11-11T04:34:55;5.07;;;3.28;;
52974;SDS011;38839;45.186;5.720;2022-11-11T04:37:22;4.35;;;3.13;;
52974;SDS011;38839;45.186;5.720;2022-11-11T04:39:48;4.35;;;3.13;;
52974;SDS011;38839;45.186;5.720;2022-11-11T04:42:32;5.10;;;3.30;;
52974;SDS011;38839;45.186;5.720;2022-11-11T04:44:58;5.47;;;3.40;;
52974;SDS011;38839;45.186;5.720;2022-11-11T04:48:03;3.65;;;3.00;;
52974;SDS011;38839;45.186;5.720;2022-11-11T04:50:31;4.88;;;3.25;;
52974;SDS011;38839;45.186;5.720;2022-11-11T04:53:01;4.95;;;2.97;;
52974;SDS011;38839;45.186;5.720;2022-11-11T04:55:27;4.07;;;3.10;;
52974;SDS011;38839;45.186;5.720;2022-11-11T04:58:11;5.55;;;3.05;;
52974;SDS011;38839;45.186;5.720;2022-11-11T05:00:37;4.47;;;3.33;;
52974;SDS011;38839;45.186;5.720;2022-11-11T05:03:03;8.23;;;3.15;;
52974;SDS011;38839;45.186;5.720;2022-11-11T05:05:48;4.43;;;2.90;;
52974;SDS011;38839;45.186;5.720;2022-11-11T05:08:32;4.95;;;2.92;;
52974;SDS011;38839;45.186;5.720;2022-11-11T05:11:18;4.22;;;3.03;;
52974;SDS011;38839;45.186;5.720;2022-11-11T05:13:43;4.43;;;3.25;;
52974;SDS011;38839;45.186;5.720;2022-11-11T05:16:29;3.53;;;3.00;;
52974;SDS011;38839;45.186;5.720;2022-11-11T05:19:16;5.68;;;3.17;;
52974;SDS011;38839;45.186;5.720;2022-11-11T05:22:08;4.90;;;3.28;;
52974;SDS011;38839;45.186;5.720;2022-11-11T05:24:38;3.88;;;2.90;;
52974;SDS011;38839;45.186;5.720;2022-11-11T05:27:22;4.78;;;2.85;;
52974;SDS011;38839;45.186;5.720;2022-11-11T05:29:47;3.47;;;3.17;;
52974;SDS011;38839;45.186;5.720;2022-11-11T05:32:16;4.32;;;2.97;;
52974;SDS011;38839;45.186;5.720;2022-11-11T05:37:08;4.05;;;2.85;;
52974;SDS011;38839;45.186;5.720;2022-11-11T05:39:34;4.53;;;3.03;;
52974;SDS011;38839;45.186;5.720;2022-11-11T05:41:59;4.35;;;3.40;;
52974;SDS011;38839;45.186;5.720;2022-11-11T05:44:24;4.63;;;3.13;;
52974;SDS011;38839;45.186;5.720;2022-11-11T05:46:50;4.55;;;3.25;;
52974;SDS011;38839;45.186;5.720;2022-11-11T05:49:15;4.95;;;3.28;;
52974;SDS011;38839;45.186;5.720;2022-11-11T05:51:41;3.53;;;2.90;;
52974;SDS011;38839;45.186;5.720;2022-11-11T05:54:07;6.70;;;2.63;;
52974;SDS011;38839;45.186;5.720;2022-11-11T05:56:33;3.97;;;2.80;;
52974;SDS011;38839;45.186;5.720;2022-11-11T05:58:58;2.58;;;2.30;;
52974;SDS011;38839;45.186;5.720;2022-11-11T06:01:24;4.00;;;2.90;;
52974;SDS011;38839;45.186;5.720;2022-11-11T06:03:49;2.72;;;2.33;;
52974;SDS011;38839;45.186;5.720;2022-11-11T06:06:14;7.00;;;2.60;;
52974;SDS011;38839;45.186;5.720;2022-11-11T06:08:40;3.88;;;3.10;;
52974;SDS011;38839;45.186;5.720;2022-11-11T06:11:05;3.90;;;3.08;;
52974;SDS011;38839;45.186;5.720;2022-11-11T06:13:32;3.70;;;2.80;;
52974;SDS011;38839;45.186;5.720;2022-11-11T06:15:57;3.22;;;2.40;;
52974;SDS011;38839;45.186;5.720;2022-11-11T06:18:23;2.88;;;2.10;;
52974;SDS011;38839;45.186;5.720;2022-11-11T06:20:52;2.45;;;2.15;;
52974;SDS011;38839;45.186;5.720;2022-11-11T06:23:19;2.42;;;2.00;;
52974;SDS011;38839;45.186;5.720;2022-11-11T06:25:44;4.50;;;2.28;;
52974;SDS011;38839;45.186;5.720;2022-11-11T06:28:28;3.75;;;2.42;;
52974;SDS011;38839;45.186;5.720;2022-11-11T06:30:53;3.22;;;2.55;;
52974;SDS011;38839;45.186;5.720;2022-11-11T06:33:19;3.63;;;2.50;;
52974;SDS011;38839;45.186;5.720;2022-11-11T06:35:45;3.13;;;2.45;;
52974;SDS011;38839;45.186;5.720;2022-11-11T06:38:11;2.50;;;2.15;;
52974;SDS011;38839;45.186;5.720;2022-11-11T06:40:37;4.35;;;2.70;;
52974;SDS011;38839;45.186;5.720;2022-11-11T06:43:02;3.25;;;2.00;;
52974;SDS011;38839;45.186;5.720;2022-11-11T06:45:28;3.50;;;2.53;;
52974;SDS011;38839;45.186;5.720;2022-11-11T06:47:55;3.28;;;2.50;;
52974;SDS011;38839;45.186;5.720;2022-11-11T06:50:20;2.92;;;2.22;;
52974;SDS011;38839;45.186;5.720;2022-11-11T06:52:46;4.65;;;2.72;;
52974;SDS011;38839;45.186;5.720;2022-11-11T06:55:12;3.47;;;2.00;;
52974;SDS011;38839;45.186;5.720;2022-11-11T06:57:38;3.78;;;2.47;;
52974;SDS011;38839;45.186;5.720;2022-11-11T07:00:03;3.50;;;2.47;;
52974;SDS011;38839;45.186;5.720;2022-11-11T07:02:30;4.88;;;2.33;;
52974;SDS011;38839;45.186;5.720;2022-11-11T07:04:55;3.65;;;2.17;;
52974;SDS011;38839;45.186;5.720;2022-11-11T07:07:21;3.50;;;2.25;;
52974;SDS011;38839;45.186;5.720;2022-11-11T07:09:46;4.45;;;2.70;;
52974;SDS011;38839;45.186;5.720;2022-11-11T07:12:11;4.85;;;2.63;;
52974;SDS011;38839;45.186;5.720;2022-11-11T07:14:37;3.10;;;2.10;;
52974;SDS011;38839;45.186;5.720;2022-11-11T07:17:02;2.90;;;2.40;;
52974;SDS011;38839;45.186;5.720;2022-11-11T07:19:29;2.97;;;2.55;;
52974;SDS011;38839;45.186;5.720;2022-11-11T07:21:54;3.20;;;2.60;;
52974;SDS011;38839;45.186;5.720;2022-11-11T07:24:20;2.53;;;2.33;;
52974;SDS011;38839;45.186;5.720;2022-11-11T07:26:45;6.90;;;2.90;;
52974;SDS011;38839;45.186;5.720;2022-11-11T07:29:10;4.55;;;2.95;;
52974;SDS011;38839;45.186;5.720;2022-11-11T07:31:39;5.03;;;2.80;;
52974;SDS011;38839;45.186;5.720;2022-11-11T07:34:05;3.85;;;3.10;;
52974;SDS011;38839;45.186;5.720;2022-11-11T07:36:31;3.72;;;3.10;;
52974;SDS011;38839;45.186;5.720;2022-11-11T07:38:57;6.40;;;3.40;;
52974;SDS011;38839;45.186;5.720;2022-11-11T07:41:22;3.97;;;3.58;;
52974;SDS011;38839;45.186;5.720;2022-11-11T07:43:47;3.78;;;3.15;;
52974;SDS011;38839;45.186;5.720;2022-11-11T07:46:13;3.58;;;2.92;;
52974;SDS011;38839;45.186;5.720;2022-11-11T07:48:39;9.30;;;3.15;;
52974;SDS011;38839;45.186;5.720;2022-11-11T07:51:04;4.57;;;2.60;;
52974;SDS011;38839;45.186;5.720;2022-11-11T07:53:30;4.68;;;2.60;;
52974;SDS011;38839;45.186;5.720;2022-11-11T07:55:59;3.15;;;2.55;;
52974;SDS011;38839;45.186;5.720;2022-11-11T07:58:27;4.18;;;2.20;;
52974;SDS011;38839;45.186;5.720;2022-11-11T08:00:52;2.53;;;2.08;;
52974;SDS011;38839;45.186;5.720;2022-11-11T08:03:17;3.10;;;2.33;;
52974;SDS011;38839;45.186;5.720;2022-11-11T08:05:44;2.80;;;2.17;;
52974;SDS011;38839;45.186;5.720;2022-11-11T08:08:10;2.40;;;2.20;;
52974;SDS011;38839;45.186;5.720;2022-11-11T08:10:36;2.88;;;2.30;;
52974;SDS011;38839;45.186;5.720;2022-11-11T08:13:01;4.95;;;2.20;;
52974;SDS011;38839;45.186;5.720;2022-11-11T08:15:46;2.80;;;2.50;;
52974;SDS011;38839;45.186;5.720;2022-11-11T08:18:12;2.95;;;2.47;;
52974;SDS011;38839;45.186;5.720;2022-11-11T08:20:38;4.65;;;3.80;;
52974;SDS011;38839;45.186;5.720;2022-11-11T08:23:03;2.60;;;2.20;;
52974;SDS011;38839;45.186;5.720;2022-11-11T08:25:29;3.35;;;2.33;;
52974;SDS011;38839;45.186;5.720;2022-11-11T08:27:59;4.47;;;2.65;;
52974;SDS011;38839;45.186;5.720;2022-11-11T08:30:25;2.97;;;2.22;;
52974;SDS011;38839;45.186;5.720;2022-11-11T08:33:01;6.32;;;2.30;;
52974;SDS011;38839;45.186;5.720;2022-11-11T08:35:30;3.25;;;2.42;;
52974;SDS011;38839;45.186;5.720;2022-11-11T08:38:02;4.90;;;2.70;;
52974;SDS011;38839;45.186;5.720;2022-11-11T08:40:27;4.03;;;2.25;;
52974;SDS011;38839;45.186;5.720;2022-11-11T08:42:56;3.92;;;2.33;;
52974;SDS011;38839;45.186;5.720;2022-11-11T08:45:23;3.25;;;2.45;;
52974;SDS011;38839;45.186;5.720;2022-11-11T08:47:50;3.42;;;2.42;;
52974;SDS011;38839;45.186;5.720;2022-11-11T08:50:15;5.43;;;2.58;;
52974;SDS011;38839;45.186;5.720;2022-11-11T08:52:48;2.50;;;2.30;;
52974;SDS011;38839;45.186;5.720;2022-11-11T08:55:14;4.05;;;2.60;;
52974;SDS011;38839;45.186;5.720;2022-11-11T08:57:40;5.28;;;2.40;;
52974;SDS011;38839;45.186;5.720;2022-11-11T09:00:06;3.15;;;2.42;;
52974;SDS011;38839;45.186;5.720;2022-11-11T09:02:32;3.28;;;2.47;;
52974;SDS011;38839;45.186;5.720;2022-11-11T09:04:58;3.85;;;2.50;;
52974;SDS011;38839;45.186;5.720;2022-11-11T09:07:23;3.25;;;2.50;;
52974;SDS011;38839;45.186;5.720;2022-11-11T09:09:49;3.92;;;2.50;;
52974;SDS011;38839;45.186;5.720;2022-11-11T09:12:14;5.63;;;2.80;;
52974;SDS011;38839;45.186;5.720;2022-11-11T09:14:40;3.58;;;2.72;;
52974;SDS011;38839;45.186;5.720;2022-11-11T09:17:05;2.78;;;2.10;;
52974;SDS011;38839;45.186;5.720;2022-11-11T09:19:31;3.00;;;2.47;;
52974;SDS011;38839;45.186;5.720;2022-11-11T09:21:58;2.50;;;2.20;;
52974;SDS011;38839;45.186;5.720;2022-11-11T09:24:27;2.22;;;2.00;;
52974;SDS011;38839;45.186;5.720;2022-11-11T09:26:53;3.50;;;2.20;;
52974;SDS011;38839;45.186;5.720;2022-11-11T09:29:18;4.47;;;2.50;;
52974;SDS011;38839;45.186;5.720;2022-11-11T09:31:44;4.63;;;1.90;;
52974;SDS011;38839;45.186;5.720;2022-11-11T09:34:10;2.42;;;2.13;;
52974;SDS011;38839;45.186;5.720;2022-11-11T09:36:36;2.38;;;2.17;;
52974;SDS011;38839;45.186;5.720;2022-11-11T09:39:01;3.63;;;2.28;;
52974;SDS011;38839;45.186;5.720;2022-11-11T09:41:41;3.25;;;2.22;;
52974;SDS011;38839;45.186;5.720;2022-11-11T09:44:40;3.75;;;2.65;;
52974;SDS011;38839;45.186;5.720;2022-11-11T09:49:58;3.17;;;2.80;;
52974;SDS011;38839;45.186;5.720;2022-11-11T09:52:36;2.92;;;2.70;;
52974;SDS011;38839;45.186;5.720;2022-11-11T09:55:14;3.58;;;2.95;;
52974;SDS011;38839;45.186;5.720;2022-11-11T09:57:43;5.40;;;3.03;;
52974;SDS011;38839;45.186;5.720;2022-11-11T10:00:18;4.22;;;2.72;;
52974;SDS011;38839;45.186;5.720;2022-11-11T10:02:51;3.70;;;3.00;;
52974;SDS011;38839;45.186;5.720;2022-11-11T10:05:26;4.47;;;3.00;;
52974;SDS011;38839;45.186;5.720;2022-11-11T10:07:59;3.42;;;2.88;;
52974;SDS011;38839;45.186;5.720;2022-11-11T10:10:46;4.32;;;3.40;;
52974;SDS011;38839;45.186;5.720;2022-11-11T10:13:14;3.70;;;2.53;;
52974;SDS011;38839;45.186;5.720;2022-11-11T10:15:44;4.22;;;2.88;;
52974;SDS011;38839;45.186;5.720;2022-11-11T10:20:55;3.85;;;3.05;;
52974;SDS011;38839;45.186;5.720;2022-11-11T10:23:31;4.68;;;3.00;;
52974;SDS011;38839;45.186;5.720;2022-11-11T10:26:01;3.75;;;2.70;;
52974;SDS011;38839;45.186;5.720;2022-11-11T10:28:32;3.10;;;2.47;;
52974;SDS011;38839;45.186;5.720;2022-11-11T10:31:02;2.25;;;2.08;;
52974;SDS011;38839;45.186;5.720;2022-11-11T10:33:42;2.80;;;2.42;;
52974;SDS011;38839;45.186;5.720;2022-11-11T10:36:13;2.72;;;2.20;;
52974;SDS011;38839;45.186;5.720;2022-11-11T10:41:18;2.50;;;2.17;;
52974;SDS011;38839;45.186;5.720;2022-11-11T10:43:51;3.47;;;2.25;;
52974;SDS011;38839;45.186;5.720;2022-11-11T10:51:29;3.88;;;2.35;;
52974;SDS011;38839;45.186;5.720;2022-11-11T10:54:08;6.32;;;3.03;;
52974;SDS011;38839;45.186;5.720;2022-11-11T10:57:08;5.57;;;2.80;;
52974;SDS011;38839;45.186;5.720;2022-11-11T10:59:38;2.65;;;2.38;;
52974;SDS011;38839;45.186;5.720;2022-11-11T11:02:18;4.68;;;2.25;;
52974;SDS011;38839;45.186;5.720;2022-11-11T11:04:51;2.20;;;1.85;;
52974;SDS011;38839;45.186;5.720;2022-11-11T11:07:20;2.30;;;1.88;;
52974;SDS011;38839;45.186;5.720;2022-11-11T11:09:53;4.63;;;2.20;;
52974;SDS011;38839;45.186;5.720;2022-11-11T11:12:28;8.88;;;2.40;;
52974;SDS011;38839;45.186;5.720;2022-11-11T11:14:57;3.70;;;2.47;;
52974;SDS011;38839;45.186;5.720;2022-11-11T11:18:12;5.20;;;2.90;;
52974;SDS011;38839;45.186;5.720;2022-11-11T11:20:21;4.03;;;1.98;;
52974;SDS011;38839;45.186;5.720;2022-11-11T11:22:48;3.80;;;2.17;;
52974;SDS011;38839;45.186;5.720;2022-11-11T11:25:14;5.78;;;2.00;;
52974;SDS011;38839;45.186;5.720;2022-11-11T11:27:40;3.55;;;2.25;;
52974;SDS011;38839;45.186;5.720;2022-11-11T11:30:10;2.80;;;2.10;;
52974;SDS011;38839;45.186;5.720;2022-11-11T11:32:37;3.90;;;2.10;;
52974;SDS011;38839;45.186;5.720;2022-11-11T11:35:06;3.38;;;2.17;;
52974;SDS011;38839;45.186;5.720;2022-11-11T11:37:33;3.05;;;2.15;;
52974;SDS011;38839;45.186;5.720;2022-11-11T11:40:13;2.80;;;1.98;;
52974;SDS011;38839;45.186;5.720;2022-11-11T11:42:39;2.50;;;1.70;;
52974;SDS011;38839;45.186;5.720;2022-11-11T11:47:48;2.05;;;1.85;;
52974;SDS011;38839;45.186;5.720;2022-11-11T11:50:41;4.35;;;2.20;;
52974;SDS011;38839;45.186;5.720;2022-11-11T11:53:27;2.67;;;2.03;;
52974;SDS011;38839;45.186;5.720;2022-11-11T11:56:18;3.55;;;2.22;;
52974;SDS011;38839;45.186;5.720;2022-11-11T11:59:25;4.82;;;2.35;;
52974;SDS011;38839;45.186;5.720;2022-11-11T12:01:50;5.00;;;2.08;;
52974;SDS011;38839;45.186;5.720;2022-11-11T12:07:26;2.53;;;1.88;;
52974;SDS011;38839;45.186;5.720;2022-11-11T12:15:35;2.33;;;1.60;;
52974;SDS011;38839;45.186;5.720;2022-11-11T12:21:12;2.47;;;1.70;;
52974;SDS011;38839;45.186;5.720;2022-11-11T12:26:18;1.77;;;1.50;;
52974;SDS011;38839;45.186;5.720;2022-11-11T12:28:54;2.38;;;1.80;;
52974;SDS011;38839;45.186;5.720;2022-11-11T12:31:55;1.60;;;1.50;;
52974;SDS011;38839;45.186;5.720;2022-11-11T12:34:50;3.20;;;1.70;;
52974;SDS011;38839;45.186;5.720;2022-11-11T12:37:35;1.60;;;1.50;;
52974;SDS011;38839;45.186;5.720;2022-11-11T12:46:25;1.85;;;1.30;;
52974;SDS011;38839;45.186;5.720;2022-11-11T12:54:58;4.20;;;2.00;;
52974;SDS011;38839;45.186;5.720;2022-11-11T13:00:08;2.10;;;1.30;;
52974;SDS011;38839;45.186;5.720;2022-11-11T13:05:19;1.90;;;1.35;;
52974;SDS011;38839;45.186;5.720;2022-11-11T13:10:19;2.45;;;1.30;;
52974;SDS011;38839;45.186;5.720;2022-11-11T13:12:54;3.17;;;1.27;;
52974;SDS011;38839;45.186;5.720;2022-11-11T13:15:28;1.52;;;1.17;;
52974;SDS011;38839;45.186;5.720;2022-11-11T13:17:53;1.75;;;1.10;;
52974;SDS011;38839;45.186;5.720;2022-11-11T13:23:08;4.05;;;1.20;;
52974;SDS011;38839;45.186;5.720;2022-11-11T13:25:36;3.00;;;1.38;;
52974;SDS011;38839;45.186;5.720;2022-11-11T13:28:06;1.67;;;1.02;;
52974;SDS011;38839;45.186;5.720;2022-11-11T13:30:56;1.38;;;1.10;;
52974;SDS011;38839;45.186;5.720;2022-11-11T13:33:34;2.33;;;1.35;;
52974;SDS011;38839;45.186;5.720;2022-11-11T13:36:03;3.35;;;1.50;;
52974;SDS011;38839;45.186;5.720;2022-11-11T13:38:43;3.97;;;1.50;;
52974;SDS011;38839;45.186;5.720;2022-11-11T13:41:11;2.60;;;1.17;;
52974;SDS011;38839;45.186;5.720;2022-11-11T13:43:47;2.53;;;1.40;;
52974;SDS011;38839;45.186;5.720;2022-11-11T13:48:56;1.40;;;1.30;;
52974;SDS011;38839;45.186;5.720;2022-11-11T13:56:52;1.33;;;1.23;;
52974;SDS011;38839;45.186;5.720;2022-11-11T13:59:27;2.65;;;1.40;;
52974;SDS011;38839;45.186;5.720;2022-11-11T14:18:02;3.47;;;1.75;;
52974;SDS011;38839;45.186;5.720;2022-11-11T14:20:39;2.58;;;1.40;;
52974;SDS011;38839;45.186;5.720;2022-11-11T14:25:45;1.40;;;1.30;;
52974;SDS011;38839;45.186;5.720;2022-11-11T14:28:48;1.48;;;1.10;;
52974;SDS011;38839;45.186;5.720;2022-11-11T14:31:31;5.18;;;1.20;;
52974;SDS011;38839;45.186;5.720;2022-11-11T14:39:56;1.20;;;1.05;;
52974;SDS011;38839;45.186;5.720;2022-11-11T14:45:03;1.52;;;1.25;;
52974;SDS011;38839;45.186;5.720;2022-11-11T14:47:50;1.45;;;1.30;;
52974;SDS011;38839;45.186;5.720;2022-11-11T14:53:01;3.65;;;1.17;;
52974;SDS011;38839;45.186;5.720;2022-11-11T15:00:33;2.00;;;1.38;;
52974;SDS011;38839;45.186;5.720;2022-11-11T15:03:23;1.20;;;1.10;;
52974;SDS011;38839;45.186;5.720;2022-11-11T15:05:52;3.70;;;1.42;;
52974;SDS011;38839;45.186;5.720;2022-11-11T15:08:22;1.65;;;1.27;;
52974;SDS011;38839;45.186;5.720;2022-11-11T15:24:40;3.65;;;1.23;;
52974;SDS011;38839;45.186;5.720;2022-11-11T15:30:13;3.15;;;2.05;;
52974;SDS011;38839;45.186;5.720;2022-11-11T15:37:52;3.20;;;1.38;;
52974;SDS011;38839;45.186;5.720;2022-11-11T15:40:21;1.30;;;1.20;;
52974;SDS011;38839;45.186;5.720;2022-11-11T15:42:49;1.43;;;1.33;;
52974;SDS011;38839;45.186;5.720;2022-11-11T15:47:44;3.80;;;1.67;;
52974;SDS011;38839;45.186;5.720;2022-11-11T15:50:26;2.22;;;1.23;;
52974;SDS011;38839;45.186;5.720;2022-11-11T15:52:55;1.50;;;1.40;;
52974;SDS011;38839;45.186;5.720;2022-11-11T15:58:06;2.22;;;1.40;;
52974;SDS011;38839;45.186;5.720;2022-11-11T16:00:38;3.40;;;1.98;;
52974;SDS011;38839;45.186;5.720;2022-11-11T16:03:04;4.53;;;2.58;;
52974;SDS011;38839;45.186;5.720;2022-11-11T16:05:30;9.00;;;3.10;;
52974;SDS011;38839;45.186;5.720;2022-11-11T16:08:01;5.50;;;2.85;;
52974;SDS011;38839;45.186;5.720;2022-11-11T16:10:34;5.20;;;2.60;;
52974;SDS011;38839;45.186;5.720;2022-11-11T16:15:48;8.10;;;3.33;;
52974;SDS011;38839;45.186;5.720;2022-11-11T16:23:21;5.75;;;3.05;;
52974;SDS011;38839;45.186;5.720;2022-11-11T16:25:48;8.07;;;3.28;;
52974;SDS011;38839;45.186;5.720;2022-11-11T16:28:14;5.47;;;3.03;;
52974;SDS011;38839;45.186;5.720;2022-11-11T16:30:41;5.03;;;2.70;;
52974;SDS011;38839;45.186;5.720;2022-11-11T16:33:49;3.35;;;1.88;;
52974;SDS011;38839;45.186;5.720;2022-11-11T16:36:06;5.05;;;1.98;;
52974;SDS011;38839;45.186;5.720;2022-11-11T16:38:33;3.72;;;1.70;;
52974;SDS011;38839;45.186;5.720;2022-11-11T16:40:59;5.88;;;1.83;;
52974;SDS011;38839;45.186;5.720;2022-11-11T16:43:30;3.03;;;1.58;;
52974;SDS011;38839;45.186;5.720;2022-11-11T16:48:47;4.07;;;2.40;;
52974;SDS011;38839;45.186;5.720;2022-11-11T16:53:47;4.45;;;2.10;;
52974;SDS011;38839;45.186;5.720;2022-11-11T16:56:27;3.90;;;2.13;;
52974;SDS011;38839;45.186;5.720;2022-11-11T16:58:55;3.63;;;2.22;;
52974;SDS011;38839;45.186;5.720;2022-11-11T17:01:25;3.20;;;1.88;;
52974;SDS011;38839;45.186;5.720;2022-11-11T17:03:58;4.05;;;2.72;;
52974;SDS011;38839;45.186;5.720;2022-11-11T17:09:38;3.40;;;2.33;;
52974;SDS011;38839;45.186;5.720;2022-11-11T17:12:05;3.30;;;2.47;;
52974;SDS011;38839;45.186;5.720;2022-11-11T17:14:32;4.40;;;2.70;;
52974;SDS011;38839;45.186;5.720;2022-11-11T17:17:03;3.70;;;2.85;;
52974;SDS011;38839;45.186;5.720;2022-11-11T17:19:30;4.75;;;2.60;;
52974;SDS011;38839;45.186;5.720;2022-11-11T17:22:04;3.38;;;2.70;;
52974;SDS011;38839;45.186;5.720;2022-11-11T17:24:30;3.22;;;2.08;;
52974;SDS011;38839;45.186;5.720;2022-11-11T17:26:56;4.82;;;2.90;;
52974;SDS011;38839;45.186;5.720;2022-11-11T17:29:21;6.47;;;2.92;;
52974;SDS011;38839;45.186;5.720;2022-11-11T17:31:46;5.35;;;3.40;;
52974;SDS011;38839;45.186;5.720;2022-11-11T17:34:12;3.13;;;2.42;;
52974;SDS011;38839;45.186;5.720;2022-11-11T17:36:37;3.28;;;2.42;;
52974;SDS011;38839;45.186;5.720;2022-11-11T17:39:03;6.35;;;3.10;;